sensor_id;sensor_type;location;lat;lon;timestamp;P1;durP1;ratioP1;P2;durP2;ratioP2
30862;SDS011;17573;55.922;37.540;2023-12-22T00:01:44;16.75;;;9.82;;
30862;SDS011;17573;55.922;37.540;2023-12-22T00:04:10;13.57;;;9.70;;
30862;SDS011;17573;55.922;37.540;2023-12-22T00:06:36;16.92;;;12.45;;
30862;SDS011;17573;55.922;37.540;2023-12-22T00:09:03;23.83;;;11.80;;
30862;SDS011;17573;55.922;37.540;2023-12-22T00:11:28;14.43;;;10.80;;
30862;SDS011;17573;55.922;37.540;2023-12-22T00:13:54;18.08;;;9.95;;
30862;SDS011;17573;55.922;37.540;2023-12-22T00:16:20;15.05;;;9.98;;
30862;SDS011;17573;55.922;37.540;2023-12-22T00:18:46;18.55;;;11.05;;
30862;SDS011;17573;55.922;37.540;2023-12-22T00:21:11;18.13;;;9.43;;
30862;SDS011;17573;55.922;37.540;2023-12-22T00:23:37;21.25;;;11.18;;
30862;SDS011;17573;55.922;37.540;2023-12-22T00:26:03;19.92;;;11.02;;
30862;SDS011;17573;55.922;37.540;2023-12-22T00:28:30;16.65;;;10.52;;
30862;SDS011;17573;55.922;37.540;2023-12-22T00:30:59;24.38;;;9.73;;
30862;SDS011;17573;55.922;37.540;2023-12-22T00:33:26;18.58;;;11.43;;
30862;SDS011;17573;55.922;37.540;2023-12-22T00:35:51;12.10;;;8.25;;
30862;SDS011;17573;55.922;37.540;2023-12-22T00:38:18;16.08;;;10.27;;
30862;SDS011;17573;55.922;37.540;2023-12-22T00:40:43;15.20;;;9.82;;
30862;SDS011;17573;55.922;37.540;2023-12-22T00:43:09;14.32;;;10.38;;
30862;SDS011;17573;55.922;37.540;2023-12-22T00:45:35;13.73;;;9.75;;
30862;SDS011;17573;55.922;37.540;2023-12-22T00:48:01;15.68;;;10.70;;
30862;SDS011;17573;55.922;37.540;2023-12-22T00:50:27;13.43;;;10.27;;
30862;SDS011;17573;55.922;37.540;2023-12-22T00:52:53;17.60;;;10.30;;
30862;SDS011;17573;55.922;37.540;2023-12-22T00:55:19;16.55;;;10.02;;
30862;SDS011;17573;55.922;37.540;2023-12-22T00:57:45;16.38;;;10.88;;
30862;SDS011;17573;55.922;37.540;2023-12-22T01:00:11;19.90;;;11.25;;
30862;SDS011;17573;55.922;37.540;2023-12-22T01:02:38;14.30;;;9.38;;
30862;SDS011;17573;55.922;37.540;2023-12-22T01:05:04;12.85;;;8.48;;
30862;SDS011;17573;55.922;37.540;2023-12-22T01:07:30;15.82;;;10.38;;
30862;SDS011;17573;55.922;37.540;2023-12-22T01:09:56;20.52;;;10.85;;
30862;SDS011;17573;55.922;37.540;2023-12-22T01:12:31;20.73;;;11.05;;
30862;SDS011;17573;55.922;37.540;2023-12-22T01:14:57;14.23;;;9.80;;
30862;SDS011;17573;55.922;37.540;2023-12-22T01:17:23;21.05;;;10.40;;
30862;SDS011;17573;55.922;37.540;2023-12-22T01:19:49;15.55;;;10.82;;
30862;SDS011;17573;55.922;37.540;2023-12-22T01:22:16;17.27;;;10.15;;
30862;SDS011;17573;55.922;37.540;2023-12-22T01:24:43;17.48;;;11.80;;
30862;SDS011;17573;55.922;37.540;2023-12-22T01:27:11;19.15;;;11.13;;
30862;SDS011;17573;55.922;37.540;2023-12-22T01:29:37;17.42;;;10.10;;
30862;SDS011;17573;55.922;37.540;2023-12-22T01:32:04;16.90;;;7.50;;
30862;SDS011;17573;55.922;37.540;2023-12-22T01:34:30;18.33;;;11.07;;
30862;SDS011;17573;55.922;37.540;2023-12-22T01:36:55;14.48;;;8.98;;
30862;SDS011;17573;55.922;37.540;2023-12-22T01:39:22;11.65;;;8.02;;
30862;SDS011;17573;55.922;37.540;2023-12-22T01:41:47;12.20;;;8.50;;
30862;SDS011;17573;55.922;37.540;2023-12-22T01:44:14;16.80;;;10.10;;
30862;SDS011;17573;55.922;37.540;2023-12-22T01:46:40;21.52;;;11.35;;
30862;SDS011;17573;55.922;37.540;2023-12-22T01:49:05;16.25;;;9.73;;
30862;SDS011;17573;55.922;37.540;2023-12-22T01:51:33;13.45;;;9.00;;
30862;SDS011;17573;55.922;37.540;2023-12-22T01:54:00;9.38;;;6.47;;
30862;SDS011;17573;55.922;37.540;2023-12-22T01:56:27;17.17;;;10.73;;
30862;SDS011;17573;55.922;37.540;2023-12-22T01:58:54;14.45;;;9.60;;
30862;SDS011;17573;55.922;37.540;2023-12-22T02:01:22;16.73;;;10.43;;
30862;SDS011;17573;55.922;37.540;2023-12-22T02:03:49;14.88;;;10.15;;
30862;SDS011;17573;55.922;37.540;2023-12-22T02:06:18;15.65;;;10.02;;
30862;SDS011;17573;55.922;37.540;2023-12-22T02:08:47;15.55;;;10.55;;
30862;SDS011;17573;55.922;37.540;2023-12-22T02:11:14;15.95;;;9.43;;
30862;SDS011;17573;55.922;37.540;2023-12-22T02:13:44;18.65;;;9.80;;
30862;SDS011;17573;55.922;37.540;2023-12-22T02:18:59;18.17;;;9.73;;
30862;SDS011;17573;55.922;37.540;2023-12-22T02:21:30;12.13;;;7.80;;
30862;SDS011;17573;55.922;37.540;2023-12-22T02:23:56;13.57;;;10.00;;
30862;SDS011;17573;55.922;37.540;2023-12-22T02:26:25;16.10;;;11.73;;
30862;SDS011;17573;55.922;37.540;2023-12-22T02:28:55;16.25;;;11.13;;
30862;SDS011;17573;55.922;37.540;2023-12-22T02:31:27;15.05;;;9.52;;
30862;SDS011;17573;55.922;37.540;2023-12-22T02:34:12;15.50;;;11.90;;
30862;SDS011;17573;55.922;37.540;2023-12-22T02:36:39;14.18;;;8.95;;
30862;SDS011;17573;55.922;37.540;2023-12-22T02:39:06;23.65;;;12.38;;
30862;SDS011;17573;55.922;37.540;2023-12-22T02:41:33;20.60;;;9.55;;
30862;SDS011;17573;55.922;37.540;2023-12-22T02:43:59;16.67;;;10.25;;
30862;SDS011;17573;55.922;37.540;2023-12-22T02:46:25;16.42;;;11.82;;
30862;SDS011;17573;55.922;37.540;2023-12-22T02:48:51;15.75;;;9.55;;
30862;SDS011;17573;55.922;37.540;2023-12-22T02:51:17;13.10;;;8.10;;
30862;SDS011;17573;55.922;37.540;2023-12-22T02:53:43;18.02;;;10.40;;
30862;SDS011;17573;55.922;37.540;2023-12-22T02:56:08;13.95;;;7.85;;
30862;SDS011;17573;55.922;37.540;2023-12-22T02:58:34;26.05;;;11.50;;
30862;SDS011;17573;55.922;37.540;2023-12-22T03:01:01;19.67;;;11.50;;
30862;SDS011;17573;55.922;37.540;2023-12-22T03:03:27;17.05;;;10.73;;
30862;SDS011;17573;55.922;37.540;2023-12-22T03:05:53;22.92;;;10.80;;
30862;SDS011;17573;55.922;37.540;2023-12-22T03:08:19;20.50;;;12.05;;
30862;SDS011;17573;55.922;37.540;2023-12-22T03:10:45;23.45;;;11.50;;
30862;SDS011;17573;55.922;37.540;2023-12-22T03:13:11;19.23;;;10.57;;
30862;SDS011;17573;55.922;37.540;2023-12-22T03:15:36;19.60;;;10.02;;
30862;SDS011;17573;55.922;37.540;2023-12-22T03:18:02;16.88;;;9.35;;
30862;SDS011;17573;55.922;37.540;2023-12-22T03:20:29;23.95;;;13.20;;
30862;SDS011;17573;55.922;37.540;2023-12-22T03:22:55;21.02;;;12.43;;
30862;SDS011;17573;55.922;37.540;2023-12-22T03:25:21;28.15;;;11.80;;
30862;SDS011;17573;55.922;37.540;2023-12-22T03:27:47;18.55;;;11.23;;
30862;SDS011;17573;55.922;37.540;2023-12-22T03:30:13;18.20;;;11.38;;
30862;SDS011;17573;55.922;37.540;2023-12-22T03:32:39;28.05;;;13.00;;
30862;SDS011;17573;55.922;37.540;2023-12-22T03:35:05;13.82;;;7.95;;
30862;SDS011;17573;55.922;37.540;2023-12-22T03:37:31;18.10;;;10.25;;
30862;SDS011;17573;55.922;37.540;2023-12-22T03:39:57;18.85;;;11.45;;
30862;SDS011;17573;55.922;37.540;2023-12-22T03:42:23;16.85;;;10.25;;
30862;SDS011;17573;55.922;37.540;2023-12-22T03:44:49;16.30;;;9.63;;
30862;SDS011;17573;55.922;37.540;2023-12-22T03:47:15;13.18;;;8.63;;
30862;SDS011;17573;55.922;37.540;2023-12-22T03:49:41;18.30;;;10.27;;
30862;SDS011;17573;55.922;37.540;2023-12-22T03:52:07;20.48;;;9.70;;
30862;SDS011;17573;55.922;37.540;2023-12-22T03:54:33;17.45;;;9.65;;
30862;SDS011;17573;55.922;37.540;2023-12-22T03:56:59;19.70;;;11.75;;
30862;SDS011;17573;55.922;37.540;2023-12-22T03:59:25;16.00;;;10.70;;
30862;SDS011;17573;55.922;37.540;2023-12-22T04:01:51;21.73;;;13.18;;
30862;SDS011;17573;55.922;37.540;2023-12-22T04:04:18;19.85;;;11.35;;
30862;SDS011;17573;55.922;37.540;2023-12-22T04:06:44;13.50;;;8.13;;
30862;SDS011;17573;55.922;37.540;2023-12-22T04:09:11;19.50;;;10.43;;
30862;SDS011;17573;55.922;37.540;2023-12-22T04:11:37;16.98;;;11.15;;
30862;SDS011;17573;55.922;37.540;2023-12-22T04:14:03;19.63;;;10.30;;
30862;SDS011;17573;55.922;37.540;2023-12-22T04:16:29;18.02;;;11.45;;
30862;SDS011;17573;55.922;37.540;2023-12-22T04:18:55;18.00;;;11.63;;
30862;SDS011;17573;55.922;37.540;2023-12-22T04:21:21;14.63;;;10.18;;
30862;SDS011;17573;55.922;37.540;2023-12-22T04:23:47;18.02;;;12.15;;
30862;SDS011;17573;55.922;37.540;2023-12-22T04:26:13;17.50;;;11.35;;
30862;SDS011;17573;55.922;37.540;2023-12-22T04:28:38;15.60;;;11.57;;
30862;SDS011;17573;55.922;37.540;2023-12-22T04:31:04;23.75;;;11.93;;
30862;SDS011;17573;55.922;37.540;2023-12-22T04:33:31;17.83;;;10.00;;
30862;SDS011;17573;55.922;37.540;2023-12-22T04:35:57;14.77;;;9.73;;
30862;SDS011;17573;55.922;37.540;2023-12-22T04:38:23;13.25;;;10.23;;
30862;SDS011;17573;55.922;37.540;2023-12-22T04:40:49;15.15;;;10.35;;
30862;SDS011;17573;55.922;37.540;2023-12-22T04:43:15;18.30;;;11.55;;
30862;SDS011;17573;55.922;37.540;2023-12-22T04:45:41;10.63;;;7.75;;
30862;SDS011;17573;55.922;37.540;2023-12-22T04:48:07;18.20;;;12.18;;
30862;SDS011;17573;55.922;37.540;2023-12-22T04:50:33;15.93;;;9.88;;
30862;SDS011;17573;55.922;37.540;2023-12-22T04:52:59;18.25;;;13.30;;
30862;SDS011;17573;55.922;37.540;2023-12-22T04:55:25;13.77;;;10.32;;
30862;SDS011;17573;55.922;37.540;2023-12-22T04:57:51;19.83;;;12.40;;
30862;SDS011;17573;55.922;37.540;2023-12-22T05:00:17;16.58;;;10.45;;
30862;SDS011;17573;55.922;37.540;2023-12-22T05:02:43;22.50;;;10.93;;
30862;SDS011;17573;55.922;37.540;2023-12-22T05:05:09;20.35;;;13.63;;
30862;SDS011;17573;55.922;37.540;2023-12-22T05:07:37;6.45;;;5.75;;
30862;SDS011;17573;55.922;37.540;2023-12-22T05:10:03;10.52;;;7.70;;
30862;SDS011;17573;55.922;37.540;2023-12-22T05:12:30;20.27;;;12.68;;
30862;SDS011;17573;55.922;37.540;2023-12-22T05:14:56;20.88;;;12.35;;
30862;SDS011;17573;55.922;37.540;2023-12-22T05:17:22;14.13;;;9.63;;
30862;SDS011;17573;55.922;37.540;2023-12-22T05:19:48;21.95;;;10.77;;
30862;SDS011;17573;55.922;37.540;2023-12-22T05:22:14;18.45;;;13.82;;
30862;SDS011;17573;55.922;37.540;2023-12-22T05:24:40;20.30;;;11.73;;
30862;SDS011;17573;55.922;37.540;2023-12-22T05:27:06;14.95;;;9.93;;
30862;SDS011;17573;55.922;37.540;2023-12-22T05:29:32;23.58;;;13.02;;
30862;SDS011;17573;55.922;37.540;2023-12-22T05:31:58;32.33;;;13.05;;
30862;SDS011;17573;55.922;37.540;2023-12-22T05:34:25;20.40;;;12.70;;
30862;SDS011;17573;55.922;37.540;2023-12-22T05:36:51;14.95;;;9.23;;
30862;SDS011;17573;55.922;37.540;2023-12-22T05:39:17;17.02;;;12.70;;
30862;SDS011;17573;55.922;37.540;2023-12-22T05:41:43;22.65;;;12.18;;
30862;SDS011;17573;55.922;37.540;2023-12-22T05:44:09;18.15;;;11.90;;
30862;SDS011;17573;55.922;37.540;2023-12-22T05:46:35;20.25;;;12.20;;
30862;SDS011;17573;55.922;37.540;2023-12-22T05:49:02;22.52;;;12.77;;
30862;SDS011;17573;55.922;37.540;2023-12-22T05:51:28;20.13;;;11.82;;
30862;SDS011;17573;55.922;37.540;2023-12-22T05:53:54;25.42;;;14.57;;
30862;SDS011;17573;55.922;37.540;2023-12-22T05:56:20;21.05;;;11.18;;
30862;SDS011;17573;55.922;37.540;2023-12-22T05:58:47;22.52;;;12.82;;
30862;SDS011;17573;55.922;37.540;2023-12-22T06:01:14;24.20;;;14.98;;
30862;SDS011;17573;55.922;37.540;2023-12-22T06:03:41;25.98;;;14.40;;
30862;SDS011;17573;55.922;37.540;2023-12-22T06:06:07;25.77;;;13.77;;
30862;SDS011;17573;55.922;37.540;2023-12-22T06:08:33;20.20;;;12.55;;
30862;SDS011;17573;55.922;37.540;2023-12-22T06:10:59;35.85;;;16.77;;
30862;SDS011;17573;55.922;37.540;2023-12-22T06:13:25;25.27;;;13.00;;
30862;SDS011;17573;55.922;37.540;2023-12-22T06:15:51;17.30;;;11.57;;
30862;SDS011;17573;55.922;37.540;2023-12-22T06:18:17;27.35;;;12.48;;
30862;SDS011;17573;55.922;37.540;2023-12-22T06:20:43;19.08;;;12.05;;
30862;SDS011;17573;55.922;37.540;2023-12-22T06:23:09;36.03;;;17.08;;
30862;SDS011;17573;55.922;37.540;2023-12-22T06:25:35;42.80;;;16.42;;
30862;SDS011;17573;55.922;37.540;2023-12-22T06:28:01;19.25;;;10.40;;
30862;SDS011;17573;55.922;37.540;2023-12-22T06:30:27;29.27;;;19.30;;
30862;SDS011;17573;55.922;37.540;2023-12-22T06:32:53;33.70;;;16.45;;
30862;SDS011;17573;55.922;37.540;2023-12-22T06:35:18;22.17;;;12.57;;
30862;SDS011;17573;55.922;37.540;2023-12-22T06:37:49;35.45;;;18.35;;
30862;SDS011;17573;55.922;37.540;2023-12-22T06:40:15;20.98;;;11.38;;
30862;SDS011;17573;55.922;37.540;2023-12-22T06:42:41;33.70;;;20.05;;
30862;SDS011;17573;55.922;37.540;2023-12-22T06:45:07;31.30;;;18.17;;
30862;SDS011;17573;55.922;37.540;2023-12-22T06:47:36;32.58;;;17.98;;
30862;SDS011;17573;55.922;37.540;2023-12-22T06:50:02;35.25;;;15.68;;
30862;SDS011;17573;55.922;37.540;2023-12-22T06:52:30;35.78;;;21.88;;
30862;SDS011;17573;55.922;37.540;2023-12-22T06:54:57;22.08;;;13.57;;
30862;SDS011;17573;55.922;37.540;2023-12-22T06:57:22;36.83;;;19.70;;
30862;SDS011;17573;55.922;37.540;2023-12-22T06:59:48;30.92;;;18.38;;
30862;SDS011;17573;55.922;37.540;2023-12-22T07:02:15;35.70;;;19.08;;
30862;SDS011;17573;55.922;37.540;2023-12-22T07:07:49;39.53;;;19.42;;
30862;SDS011;17573;55.922;37.540;2023-12-22T07:10:16;35.17;;;21.65;;
30862;SDS011;17573;55.922;37.540;2023-12-22T07:12:42;31.67;;;20.27;;
30862;SDS011;17573;55.922;37.540;2023-12-22T07:15:08;38.75;;;22.55;;
30862;SDS011;17573;55.922;37.540;2023-12-22T07:17:34;33.28;;;19.80;;
30862;SDS011;17573;55.922;37.540;2023-12-22T07:20:00;38.42;;;19.38;;
30862;SDS011;17573;55.922;37.540;2023-12-22T07:22:30;39.03;;;19.73;;
30862;SDS011;17573;55.922;37.540;2023-12-22T07:24:56;32.50;;;15.55;;
30862;SDS011;17573;55.922;37.540;2023-12-22T07:27:22;36.97;;;20.52;;
30862;SDS011;17573;55.922;37.540;2023-12-22T07:29:48;25.05;;;15.73;;
30862;SDS011;17573;55.922;37.540;2023-12-22T07:32:14;30.45;;;18.58;;
30862;SDS011;17573;55.922;37.540;2023-12-22T07:34:40;34.63;;;18.35;;
30862;SDS011;17573;55.922;37.540;2023-12-22T07:37:07;20.77;;;14.75;;
30862;SDS011;17573;55.922;37.540;2023-12-22T07:39:33;34.25;;;18.40;;
30862;SDS011;17573;55.922;37.540;2023-12-22T07:41:59;17.08;;;11.80;;
30862;SDS011;17573;55.922;37.540;2023-12-22T07:44:25;30.02;;;19.58;;
30862;SDS011;17573;55.922;37.540;2023-12-22T07:46:57;16.73;;;9.05;;
30862;SDS011;17573;55.922;37.540;2023-12-22T07:49:27;33.72;;;19.05;;
30862;SDS011;17573;55.922;37.540;2023-12-22T07:51:53;23.10;;;12.88;;
30862;SDS011;17573;55.922;37.540;2023-12-22T07:54:19;29.67;;;17.90;;
30862;SDS011;17573;55.922;37.540;2023-12-22T07:56:45;29.75;;;17.95;;
30862;SDS011;17573;55.922;37.540;2023-12-22T07:59:11;21.90;;;12.20;;
30862;SDS011;17573;55.922;37.540;2023-12-22T08:01:37;39.50;;;19.67;;
30862;SDS011;17573;55.922;37.540;2023-12-22T08:04:03;31.42;;;19.65;;
30862;SDS011;17573;55.922;37.540;2023-12-22T08:06:30;25.67;;;17.27;;
30862;SDS011;17573;55.922;37.540;2023-12-22T08:08:56;33.55;;;18.40;;
30862;SDS011;17573;55.922;37.540;2023-12-22T08:11:22;24.63;;;15.38;;
30862;SDS011;17573;55.922;37.540;2023-12-22T08:13:51;27.65;;;16.52;;
30862;SDS011;17573;55.922;37.540;2023-12-22T08:16:17;33.72;;;19.70;;
30862;SDS011;17573;55.922;37.540;2023-12-22T08:18:43;23.27;;;14.75;;
30862;SDS011;17573;55.922;37.540;2023-12-22T08:21:09;23.35;;;14.82;;
30862;SDS011;17573;55.922;37.540;2023-12-22T08:23:35;26.48;;;13.60;;
30862;SDS011;17573;55.922;37.540;2023-12-22T08:26:01;27.05;;;14.25;;
30862;SDS011;17573;55.922;37.540;2023-12-22T08:28:26;30.25;;;17.85;;
30862;SDS011;17573;55.922;37.540;2023-12-22T08:30:52;24.33;;;15.43;;
30862;SDS011;17573;55.922;37.540;2023-12-22T08:33:18;22.15;;;14.73;;
30862;SDS011;17573;55.922;37.540;2023-12-22T08:35:44;16.65;;;8.98;;
30862;SDS011;17573;55.922;37.540;2023-12-22T08:38:10;34.00;;;17.05;;
30862;SDS011;17573;55.922;37.540;2023-12-22T08:40:39;22.42;;;14.85;;
30862;SDS011;17573;55.922;37.540;2023-12-22T08:43:05;24.45;;;14.23;;
30862;SDS011;17573;55.922;37.540;2023-12-22T08:45:32;32.45;;;17.45;;
30862;SDS011;17573;55.922;37.540;2023-12-22T08:47:59;20.00;;;12.80;;
30862;SDS011;17573;55.922;37.540;2023-12-22T08:50:25;14.75;;;9.65;;
30862;SDS011;17573;55.922;37.540;2023-12-22T08:52:52;25.13;;;13.93;;
30862;SDS011;17573;55.922;37.540;2023-12-22T08:55:18;11.77;;;8.93;;
30862;SDS011;17573;55.922;37.540;2023-12-22T08:57:44;21.75;;;12.65;;
30862;SDS011;17573;55.922;37.540;2023-12-22T09:00:10;22.77;;;14.57;;
30862;SDS011;17573;55.922;37.540;2023-12-22T09:02:36;20.77;;;11.43;;
30862;SDS011;17573;55.922;37.540;2023-12-22T09:05:02;20.17;;;11.27;;
30862;SDS011;17573;55.922;37.540;2023-12-22T09:07:30;17.85;;;11.02;;
30862;SDS011;17573;55.922;37.540;2023-12-22T09:09:56;9.07;;;7.15;;
30862;SDS011;17573;55.922;37.540;2023-12-22T09:12:22;27.25;;;15.60;;
30862;SDS011;17573;55.922;37.540;2023-12-22T09:14:49;21.88;;;12.50;;
30862;SDS011;17573;55.922;37.540;2023-12-22T09:17:15;22.20;;;14.57;;
30862;SDS011;17573;55.922;37.540;2023-12-22T09:19:42;22.88;;;14.25;;
30862;SDS011;17573;55.922;37.540;2023-12-22T09:22:08;21.33;;;14.23;;
30862;SDS011;17573;55.922;37.540;2023-12-22T09:24:34;19.38;;;10.10;;
30862;SDS011;17573;55.922;37.540;2023-12-22T09:27:00;22.73;;;13.15;;
30862;SDS011;17573;55.922;37.540;2023-12-22T09:29:31;34.78;;;12.18;;
30862;SDS011;17573;55.922;37.540;2023-12-22T09:31:59;31.15;;;14.25;;
30862;SDS011;17573;55.922;37.540;2023-12-22T09:34:28;29.77;;;18.02;;
30862;SDS011;17573;55.922;37.540;2023-12-22T09:36:54;28.05;;;16.08;;
30862;SDS011;17573;55.922;37.540;2023-12-22T09:39:20;29.65;;;15.43;;
30862;SDS011;17573;55.922;37.540;2023-12-22T09:41:47;30.38;;;14.00;;
30862;SDS011;17573;55.922;37.540;2023-12-22T09:44:15;26.30;;;16.67;;
30862;SDS011;17573;55.922;37.540;2023-12-22T09:46:45;35.65;;;16.58;;
30862;SDS011;17573;55.922;37.540;2023-12-22T09:49:12;33.50;;;18.98;;
30862;SDS011;17573;55.922;37.540;2023-12-22T09:51:38;23.90;;;14.35;;
30862;SDS011;17573;55.922;37.540;2023-12-22T09:54:06;41.08;;;21.83;;
30862;SDS011;17573;55.922;37.540;2023-12-22T09:56:32;45.53;;;19.05;;
30862;SDS011;17573;55.922;37.540;2023-12-22T09:58:59;37.92;;;20.92;;
30862;SDS011;17573;55.922;37.540;2023-12-22T10:01:25;29.15;;;14.52;;
30862;SDS011;17573;55.922;37.540;2023-12-22T10:03:53;22.52;;;13.55;;
30862;SDS011;17573;55.922;37.540;2023-12-22T10:06:19;29.10;;;15.88;;
30862;SDS011;17573;55.922;37.540;2023-12-22T10:08:46;28.25;;;17.08;;
30862;SDS011;17573;55.922;37.540;2023-12-22T10:11:13;14.20;;;9.98;;
30862;SDS011;17573;55.922;37.540;2023-12-22T10:13:39;35.42;;;19.35;;
30862;SDS011;17573;55.922;37.540;2023-12-22T10:16:06;30.73;;;17.02;;
30862;SDS011;17573;55.922;37.540;2023-12-22T10:18:32;13.80;;;8.98;;
30862;SDS011;17573;55.922;37.540;2023-12-22T10:20:59;25.33;;;16.10;;
30862;SDS011;17573;55.922;37.540;2023-12-22T10:23:25;23.48;;;13.00;;
30862;SDS011;17573;55.922;37.540;2023-12-22T10:25:51;42.95;;;18.77;;
30862;SDS011;17573;55.922;37.540;2023-12-22T10:28:16;26.48;;;13.65;;
30862;SDS011;17573;55.922;37.540;2023-12-22T10:30:44;19.65;;;10.65;;
30862;SDS011;17573;55.922;37.540;2023-12-22T10:33:11;33.35;;;15.85;;
30862;SDS011;17573;55.922;37.540;2023-12-22T10:35:37;19.48;;;10.13;;
30862;SDS011;17573;55.922;37.540;2023-12-22T10:38:03;12.05;;;8.60;;
30862;SDS011;17573;55.922;37.540;2023-12-22T10:40:30;25.85;;;10.43;;
30862;SDS011;17573;55.922;37.540;2023-12-22T10:42:56;29.40;;;16.00;;
30862;SDS011;17573;55.922;37.540;2023-12-22T10:45:21;17.27;;;9.32;;
30862;SDS011;17573;55.922;37.540;2023-12-22T10:47:49;19.90;;;10.15;;
30862;SDS011;17573;55.922;37.540;2023-12-22T10:50:19;20.63;;;11.07;;
30862;SDS011;17573;55.922;37.540;2023-12-22T10:52:49;12.45;;;8.32;;
30862;SDS011;17573;55.922;37.540;2023-12-22T10:55:16;21.80;;;10.57;;
30862;SDS011;17573;55.922;37.540;2023-12-22T10:57:46;27.40;;;14.80;;
30862;SDS011;17573;55.922;37.540;2023-12-22T11:00:16;18.60;;;8.75;;
30862;SDS011;17573;55.922;37.540;2023-12-22T11:02:42;15.20;;;8.82;;
30862;SDS011;17573;55.922;37.540;2023-12-22T11:05:10;18.15;;;10.15;;
30862;SDS011;17573;55.922;37.540;2023-12-22T11:07:38;11.82;;;7.35;;
30862;SDS011;17573;55.922;37.540;2023-12-22T11:10:05;12.05;;;8.23;;
30862;SDS011;17573;55.922;37.540;2023-12-22T11:12:33;13.95;;;8.20;;
30862;SDS011;17573;55.922;37.540;2023-12-22T11:15:01;12.18;;;8.68;;
30862;SDS011;17573;55.922;37.540;2023-12-22T11:17:30;9.95;;;6.82;;
30862;SDS011;17573;55.922;37.540;2023-12-22T11:19:56;16.73;;;7.80;;
30862;SDS011;17573;55.922;37.540;2023-12-22T11:22:23;28.95;;;13.02;;
30862;SDS011;17573;55.922;37.540;2023-12-22T11:24:49;16.75;;;10.40;;
30862;SDS011;17573;55.922;37.540;2023-12-22T11:27:18;11.50;;;7.90;;
30862;SDS011;17573;55.922;37.540;2023-12-22T11:29:47;17.48;;;10.32;;
30862;SDS011;17573;55.922;37.540;2023-12-22T11:32:17;49.10;;;11.90;;
30862;SDS011;17573;55.922;37.540;2023-12-22T11:34:44;14.82;;;9.77;;
30862;SDS011;17573;55.922;37.540;2023-12-22T11:37:11;17.17;;;11.20;;
30862;SDS011;17573;55.922;37.540;2023-12-22T11:39:39;9.98;;;7.30;;
30862;SDS011;17573;55.922;37.540;2023-12-22T11:42:10;16.55;;;10.82;;
30862;SDS011;17573;55.922;37.540;2023-12-22T11:44:38;23.55;;;12.95;;
30862;SDS011;17573;55.922;37.540;2023-12-22T11:49:35;19.88;;;12.35;;
30862;SDS011;17573;55.922;37.540;2023-12-22T11:52:14;9.30;;;8.35;;
30862;SDS011;17573;55.922;37.540;2023-12-22T11:54:47;11.40;;;8.30;;
30862;SDS011;17573;55.922;37.540;2023-12-22T12:02:39;20.58;;;7.88;;
30862;SDS011;17573;55.922;37.540;2023-12-22T12:05:09;9.15;;;6.82;;
30862;SDS011;17573;55.922;37.540;2023-12-22T12:13:11;9.02;;;6.63;;
30862;SDS011;17573;55.922;37.540;2023-12-22T12:15:37;15.73;;;8.52;;
30862;SDS011;17573;55.922;37.540;2023-12-22T12:18:04;11.98;;;6.93;;
30862;SDS011;17573;55.922;37.540;2023-12-22T12:20:31;12.57;;;7.80;;
30862;SDS011;17573;55.922;37.540;2023-12-22T12:22:57;18.92;;;9.80;;
30862;SDS011;17573;55.922;37.540;2023-12-22T12:25:25;17.27;;;9.45;;
30862;SDS011;17573;55.922;37.540;2023-12-22T12:28:03;12.80;;;9.07;;
30862;SDS011;17573;55.922;37.540;2023-12-22T12:30:33;28.63;;;10.00;;
30862;SDS011;17573;55.922;37.540;2023-12-22T12:35:37;14.05;;;9.60;;
30862;SDS011;17573;55.922;37.540;2023-12-22T12:38:04;16.40;;;9.75;;
30862;SDS011;17573;55.922;37.540;2023-12-22T12:40:30;11.05;;;8.05;;
30862;SDS011;17573;55.922;37.540;2023-12-22T12:42:59;12.32;;;8.77;;
30862;SDS011;17573;55.922;37.540;2023-12-22T12:45:25;15.95;;;8.75;;
30862;SDS011;17573;55.922;37.540;2023-12-22T12:50:22;9.82;;;7.18;;
30862;SDS011;17573;55.922;37.540;2023-12-22T12:52:52;15.32;;;9.85;;
30862;SDS011;17573;55.922;37.540;2023-12-22T12:55:23;17.45;;;8.38;;
30862;SDS011;17573;55.922;37.540;2023-12-22T12:57:53;9.23;;;6.75;;
30862;SDS011;17573;55.922;37.540;2023-12-22T13:00:29;16.52;;;11.02;;
30862;SDS011;17573;55.922;37.540;2023-12-22T13:02:56;14.07;;;9.40;;
30862;SDS011;17573;55.922;37.540;2023-12-22T13:05:23;13.57;;;7.22;;
30862;SDS011;17573;55.922;37.540;2023-12-22T13:07:49;11.13;;;8.05;;
30862;SDS011;17573;55.922;37.540;2023-12-22T13:10:22;12.90;;;8.32;;
30862;SDS011;17573;55.922;37.540;2023-12-22T13:12:50;12.82;;;8.57;;
30862;SDS011;17573;55.922;37.540;2023-12-22T13:15:16;20.90;;;12.32;;
30862;SDS011;17573;55.922;37.540;2023-12-22T13:17:43;14.98;;;9.75;;
30862;SDS011;17573;55.922;37.540;2023-12-22T13:20:09;11.20;;;7.55;;
30862;SDS011;17573;55.922;37.540;2023-12-22T13:22:35;12.32;;;8.32;;
30862;SDS011;17573;55.922;37.540;2023-12-22T13:25:01;16.23;;;8.38;;
30862;SDS011;17573;55.922;37.540;2023-12-22T13:27:29;15.10;;;9.82;;
30862;SDS011;17573;55.922;37.540;2023-12-22T13:29:56;13.43;;;7.78;;
30862;SDS011;17573;55.922;37.540;2023-12-22T13:32:22;12.82;;;7.47;;
30862;SDS011;17573;55.922;37.540;2023-12-22T13:34:50;20.45;;;12.35;;
30862;SDS011;17573;55.922;37.540;2023-12-22T13:37:17;15.80;;;9.23;;
30862;SDS011;17573;55.922;37.540;2023-12-22T13:39:44;18.63;;;11.23;;
30862;SDS011;17573;55.922;37.540;2023-12-22T13:42:17;15.95;;;9.52;;
30862;SDS011;17573;55.922;37.540;2023-12-22T13:44:48;14.52;;;9.85;;
30862;SDS011;17573;55.922;37.540;2023-12-22T13:47:16;17.17;;;9.35;;
30862;SDS011;17573;55.922;37.540;2023-12-22T13:49:42;12.88;;;9.55;;
30862;SDS011;17573;55.922;37.540;2023-12-22T13:52:30;16.15;;;9.68;;
30862;SDS011;17573;55.922;37.540;2023-12-22T13:55:01;9.65;;;7.07;;
30862;SDS011;17573;55.922;37.540;2023-12-22T13:57:30;12.52;;;8.38;;
30862;SDS011;17573;55.922;37.540;2023-12-22T13:59:56;16.15;;;8.23;;
30862;SDS011;17573;55.922;37.540;2023-12-22T14:02:22;26.45;;;10.07;;
30862;SDS011;17573;55.922;37.540;2023-12-22T14:04:49;14.55;;;6.95;;
30862;SDS011;17573;55.922;37.540;2023-12-22T14:07:18;11.10;;;6.40;;
30862;SDS011;17573;55.922;37.540;2023-12-22T14:09:44;24.58;;;11.13;;
30862;SDS011;17573;55.922;37.540;2023-12-22T14:12:10;10.57;;;6.57;;
30862;SDS011;17573;55.922;37.540;2023-12-22T14:14:36;15.93;;;9.82;;
30862;SDS011;17573;55.922;37.540;2023-12-22T14:17:02;14.63;;;8.15;;
30862;SDS011;17573;55.922;37.540;2023-12-22T14:19:28;12.57;;;8.05;;
30862;SDS011;17573;55.922;37.540;2023-12-22T14:21:54;21.63;;;9.32;;
30862;SDS011;17573;55.922;37.540;2023-12-22T14:24:20;24.75;;;16.13;;
30862;SDS011;17573;55.922;37.540;2023-12-22T14:26:53;20.15;;;10.18;;
30862;SDS011;17573;55.922;37.540;2023-12-22T14:29:20;14.20;;;9.25;;
30862;SDS011;17573;55.922;37.540;2023-12-22T14:31:51;9.18;;;5.97;;
30862;SDS011;17573;55.922;37.540;2023-12-22T14:34:17;19.25;;;9.80;;
30862;SDS011;17573;55.922;37.540;2023-12-22T14:36:44;12.38;;;7.55;;